createdAt,value
2023-04-22T00:01:33.767Z,57.23
2023-04-22T00:04:01.080Z,56.91
2023-04-22T00:06:28.615Z,57.22
2023-04-22T00:08:55.853Z,57.31
2023-04-22T00:11:22.923Z,57.95
2023-04-22T00:13:50.004Z,57.80
2023-04-22T00:16:17.165Z,57.79
2023-04-22T00:18:44.297Z,58.91
2023-04-22T00:21:11.564Z,58.64
2023-04-22T00:23:38.658Z,57.73
2023-04-22T00:26:05.906Z,58.33
2023-04-22T00:28:33.468Z,58.67
2023-04-22T00:31:03.167Z,59.21
2023-04-22T00:33:31.212Z,58.91
2023-04-22T00:35:58.307Z,57.47
2023-04-22T00:38:25.372Z,57.30
2023-04-22T00:40:52.472Z,56.42
2023-04-22T00:43:19.505Z,57.16
2023-04-22T00:45:47.412Z,57.05
2023-04-22T00:48:14.588Z,56.41
2023-04-22T00:50:41.884Z,57.38
2023-04-22T00:53:08.982Z,58.08
2023-04-22T00:55:36.202Z,58.48
2023-04-22T00:58:04.396Z,58.52
2023-04-22T01:00:31.669Z,58.48
2023-04-22T01:02:59.023Z,58.36
2023-04-22T01:05:26.997Z,58.66
2023-04-22T01:07:54.375Z,58.58
2023-04-22T01:10:21.630Z,57.57
2023-04-22T01:12:48.684Z,56.84
2023-04-22T01:15:15.880Z,58.08
2023-04-22T01:17:43.088Z,57.74
2023-04-22T01:20:12.070Z,56.20
2023-04-22T01:22:45.361Z,57.30
2023-04-22T01:25:12.911Z,57.65
2023-04-22T01:27:40.849Z,58.33
2023-04-22T01:30:09.565Z,58.86
2023-04-22T01:32:36.919Z,58.67
2023-04-22T01:35:04.690Z,57.75
2023-04-22T01:37:31.928Z,58.34
2023-04-22T01:39:59.881Z,57.71
2023-04-22T01:42:27.012Z,57.32
2023-04-22T01:44:54.196Z,57.48
2023-04-22T01:47:21.319Z,57.95
2023-04-22T01:49:48.376Z,59.14
2023-04-22T01:52:16.139Z,59.02
2023-04-22T01:54:43.188Z,58.40
2023-04-22T01:57:14.070Z,58.85
2023-04-22T01:59:41.774Z,58.35
2023-04-22T02:02:09.248Z,59.69
2023-04-22T02:04:36.492Z,58.10
2023-04-22T02:07:03.658Z,60.39
2023-04-22T02:09:33.278Z,58.99
2023-04-22T02:12:01.285Z,60.35
2023-04-22T02:14:28.356Z,59.42
2023-04-22T02:16:55.405Z,59.42
2023-04-22T02:19:22.912Z,58.90
2023-04-22T02:21:50.590Z,56.24
2023-04-22T02:24:17.666Z,59.06
2023-04-22T02:26:44.694Z,59.72
2023-04-22T02:29:11.763Z,58.63
2023-04-22T02:31:39.173Z,58.78
2023-04-22T02:34:06.205Z,58.84
2023-04-22T02:36:34.777Z,60.31
2023-04-22T02:39:05.973Z,60.44
2023-04-22T02:41:33.055Z,60.04
2023-04-22T02:44:00.187Z,57.57
2023-04-22T02:46:27.337Z,57.37
2023-04-22T02:48:54.567Z,57.72
2023-04-22T02:51:21.928Z,55.99
2023-04-22T02:53:49.001Z,56.74
2023-04-22T02:56:16.057Z,58.23
2023-04-22T02:58:43.128Z,58.43
2023-04-22T03:01:10.310Z,60.43
2023-04-22T03:03:37.665Z,57.65
2023-04-22T03:06:05.095Z,56.51
2023-04-22T03:08:34.263Z,58.40
2023-04-22T03:11:01.348Z,56.95
2023-04-22T03:13:28.455Z,59.62
2023-04-22T03:15:55.473Z,59.49
2023-04-22T03:18:22.591Z,60.43
2023-04-22T03:20:50.227Z,60.43
2023-04-22T03:23:17.324Z,62.27
2023-04-22T03:25:44.418Z,62.14
2023-04-22T03:28:11.550Z,59.17
2023-04-22T03:30:38.640Z,59.28
2023-04-22T03:33:05.707Z,59.19
2023-04-22T03:35:32.798Z,58.55
2023-04-22T03:37:59.836Z,58.03
2023-04-22T03:40:26.884Z,58.07
2023-04-22T03:42:53.997Z,58.96
2023-04-22T03:45:21.412Z,57.19
2023-04-22T03:47:48.506Z,56.83
2023-04-22T03:50:15.623Z,56.45
2023-04-22T03:52:42.628Z,58.34
2023-04-22T03:55:10.174Z,59.59
2023-04-22T03:57:37.235Z,58.26
2023-04-22T04:00:05.583Z,58.33
2023-04-22T04:02:32.875Z,55.25
2023-04-22T04:05:00.750Z,56.06
2023-04-22T04:07:28.325Z,56.39
2023-04-22T04:09:57.411Z,55.82
2023-04-22T04:12:24.505Z,55.64
2023-04-22T04:14:51.540Z,56.47
2023-04-22T04:17:18.658Z,55.56
2023-04-22T04:19:45.740Z,56.09
2023-04-22T04:22:13.430Z,55.76
2023-04-22T04:24:41.858Z,54.58
2023-04-22T04:27:09.489Z,55.52
2023-04-22T04:29:41.545Z,55.15
2023-04-22T04:32:09.835Z,55.05
2023-04-22T04:34:40.268Z,55.45
2023-04-22T04:37:07.358Z,53.28
2023-04-22T04:39:34.458Z,56.70
2023-04-22T04:42:01.495Z,60.76
2023-04-22T04:44:31.743Z,63.42
2023-04-22T04:46:59.018Z,62.79
2023-04-22T04:49:26.790Z,63.77
2023-04-22T04:51:55.931Z,62.33
2023-04-22T04:54:23.150Z,61.26
2023-04-22T04:56:50.529Z,60.56
2023-04-22T04:59:17.854Z,59.42
2023-04-22T05:01:45.465Z,57.28
2023-04-22T05:04:12.879Z,55.63
2023-04-22T05:06:40.193Z,58.21
2023-04-22T05:09:07.929Z,62.21
2023-04-22T05:11:35.344Z,63.97
2023-04-22T05:14:03.428Z,62.18
2023-04-22T05:16:30.665Z,61.01
2023-04-22T05:18:57.919Z,59.91
2023-04-22T05:21:25.087Z,58.65
2023-04-22T05:23:52.220Z,61.33
2023-04-22T05:26:19.409Z,59.18
2023-04-22T05:28:46.493Z,57.73
2023-04-22T05:31:13.599Z,57.86
2023-04-22T05:33:40.710Z,57.72
2023-04-22T05:36:08.012Z,57.46
2023-04-22T05:38:35.132Z,57.79
2023-04-22T05:41:02.414Z,58.14
2023-04-22T05:43:29.452Z,58.30
2023-04-22T05:45:57.143Z,58.49
2023-04-22T05:48:24.253Z,57.59
2023-04-22T05:50:51.483Z,56.43
2023-04-22T05:53:18.700Z,56.66
2023-04-22T05:55:45.922Z,56.41
2023-04-22T05:58:13.046Z,55.72
2023-04-22T06:00:40.155Z,54.63
2023-04-22T06:03:07.706Z,54.47
2023-04-22T06:05:35.313Z,57.00
2023-04-22T06:08:02.373Z,55.62
2023-04-22T06:10:29.558Z,55.45
2023-04-22T06:12:56.700Z,54.16
2023-04-22T06:15:26.077Z,52.86
2023-04-22T06:17:54.565Z,53.17
2023-04-22T06:20:23.114Z,52.95
2023-04-22T06:22:50.953Z,50.96
2023-04-22T06:25:18.201Z,51.24
2023-04-22T06:27:45.527Z,50.66
2023-04-22T06:30:13.069Z,50.38
2023-04-22T06:32:40.182Z,51.19
2023-04-22T06:35:08.310Z,50.72
2023-04-22T06:37:35.436Z,48.33
2023-04-22T06:40:03.009Z,48.66
2023-04-22T06:42:30.346Z,47.05
2023-04-22T06:44:59.875Z,47.39
2023-04-22T06:47:26.994Z,48.84
2023-04-22T06:49:54.197Z,48.04
2023-04-22T06:52:22.780Z,47.03
2023-04-22T06:54:51.123Z,46.05
2023-04-22T06:57:18.225Z,46.34
2023-04-22T06:59:46.871Z,48.47
2023-04-22T07:02:14.423Z,47.62
2023-04-22T07:04:41.820Z,48.92
2023-04-22T07:07:09.666Z,47.10
2023-04-22T07:09:36.982Z,48.42
2023-04-22T07:12:04.732Z,47.22
2023-04-22T07:14:33.018Z,47.05
2023-04-22T07:17:00.770Z,46.97
2023-04-22T07:19:33.329Z,48.28
2023-04-22T07:22:03.342Z,47.20
2023-04-22T07:24:30.862Z,46.85
2023-04-22T07:26:58.268Z,45.21
2023-04-22T07:29:25.407Z,44.30
2023-04-22T07:31:52.578Z,43.81
2023-04-22T07:34:19.743Z,43.98
2023-04-22T07:36:46.858Z,44.64
2023-04-22T07:39:13.995Z,46.08
2023-04-22T07:41:41.589Z,46.30
2023-04-22T07:44:10.432Z,44.45
2023-04-22T07:46:37.661Z,45.13
2023-04-22T07:49:04.707Z,46.24
2023-04-22T07:51:33.514Z,46.82
2023-04-22T07:54:00.631Z,46.51
2023-04-22T07:56:27.761Z,45.50
2023-04-22T07:58:54.829Z,44.30
2023-04-22T08:01:21.918Z,44.71
2023-04-22T08:03:49.148Z,43.22
2023-04-22T08:06:16.406Z,44.36
2023-04-22T08:08:44.827Z,43.38
2023-04-22T08:11:13.253Z,42.91
2023-04-22T08:13:40.477Z,42.64
2023-04-22T08:16:07.905Z,43.18
2023-04-22T08:18:36.092Z,42.34
2023-04-22T08:21:03.453Z,43.88
2023-04-22T08:23:30.572Z,42.34
2023-04-22T08:25:57.671Z,43.78
2023-04-22T08:28:25.032Z,40.61
2023-04-22T08:30:52.127Z,39.19
2023-04-22T08:33:19.211Z,43.55
2023-04-22T08:35:50.174Z,42.87
2023-04-22T08:38:17.283Z,43.49
2023-04-22T08:40:44.418Z,45.44
2023-04-22T08:43:12.336Z,41.78
2023-04-22T08:45:40.918Z,42.24
2023-04-22T08:48:11.845Z,38.19
2023-04-22T08:50:39.873Z,42.08
2023-04-22T08:53:09.160Z,42.94
2023-04-22T08:55:37.027Z,40.61
2023-04-22T08:58:06.076Z,40.20
2023-04-22T09:00:34.593Z,41.66
2023-04-22T09:03:09.148Z,39.87
2023-04-22T09:05:40.081Z,38.56
2023-04-22T09:08:08.626Z,41.65
2023-04-22T09:10:39.727Z,40.99
2023-04-22T09:13:10.543Z,44.17
2023-04-22T09:15:37.634Z,38.51
2023-04-22T09:18:05.508Z,40.41
2023-04-22T09:20:32.828Z,39.74
2023-04-22T09:23:07.582Z,39.57
2023-04-22T09:25:37.510Z,42.64
2023-04-22T09:28:04.881Z,39.18
2023-04-22T09:30:37.718Z,39.40
2023-04-22T09:33:07.517Z,35.47
2023-04-22T09:35:40.652Z,37.54
2023-04-22T09:38:11.545Z,42.19
2023-04-22T09:40:49.797Z,37.62
2023-04-22T09:43:20.734Z,38.61
2023-04-22T09:45:47.872Z,40.05
2023-04-22T09:48:19.175Z,37.00
2023-04-22T09:50:51.799Z,35.08
2023-04-22T09:53:21.793Z,35.85
2023-04-22T09:55:57.267Z,37.15
2023-04-22T09:58:27.266Z,37.86
2023-04-22T10:00:59.096Z,37.29
2023-04-22T10:03:26.645Z,37.19
2023-04-22T10:05:53.903Z,36.28
2023-04-22T10:08:20.987Z,39.31
2023-04-22T10:10:48.176Z,38.97
2023-04-22T10:13:15.705Z,37.21
2023-04-22T10:15:55.571Z,40.23
2023-04-22T10:18:29.215Z,33.53
2023-04-22T10:20:58.277Z,32.40
2023-04-22T10:23:26.077Z,38.30
2023-04-22T10:25:57.380Z,36.41
2023-04-22T10:28:30.213Z,41.38
2023-04-22T10:30:57.389Z,31.03
2023-04-22T10:33:35.100Z,29.76
2023-04-22T10:36:20.218Z,35.24
2023-04-22T10:38:56.296Z,32.94
2023-04-22T10:41:32.353Z,30.74
2023-04-22T10:44:11.191Z,32.41
2023-04-22T10:46:42.660Z,32.76
2023-04-22T10:49:15.593Z,30.99
2023-04-22T10:52:01.460Z,28.60
2023-04-22T10:54:31.505Z,35.08
2023-04-22T10:57:12.635Z,37.94
2023-04-22T10:59:52.807Z,32.36
2023-04-22T11:02:22.971Z,27.87
2023-04-22T11:04:54.369Z,32.85
2023-04-22T11:07:27.026Z,26.98
2023-04-22T11:10:05.392Z,28.68
2023-04-22T11:12:38.253Z,31.78
2023-04-22T11:15:19.862Z,29.68
2023-04-22T11:17:54.651Z,29.96
2023-04-22T11:20:22.684Z,28.26
2023-04-22T11:22:56.509Z,28.82
2023-04-22T11:25:25.896Z,27.77
2023-04-22T11:27:55.116Z,26.79
2023-04-22T11:30:25.350Z,27.34
2023-04-22T11:32:58.599Z,24.65
2023-04-22T11:35:35.765Z,26.21
2023-04-22T11:38:08.660Z,29.18
2023-04-22T11:40:46.170Z,30.08
2023-04-22T11:43:14.425Z,28.94
2023-04-22T11:45:42.446Z,27.14
2023-04-22T11:48:11.744Z,30.97
2023-04-22T11:50:46.742Z,30.86
2023-04-22T11:53:21.179Z,29.62
2023-04-22T11:55:52.130Z,29.07
2023-04-22T11:58:28.189Z,29.46
2023-04-22T12:01:00.677Z,27.23
2023-04-22T12:03:31.659Z,28.82
2023-04-22T12:06:04.688Z,23.03
2023-04-22T12:08:42.278Z,25.65
2023-04-22T12:11:12.660Z,24.48
2023-04-22T12:13:42.836Z,24.41
2023-04-22T12:16:18.563Z,22.81
2023-04-22T12:18:56.136Z,25.32
2023-04-22T12:21:30.521Z,21.97
2023-04-22T12:24:11.451Z,24.37
2023-04-22T12:26:42.851Z,24.29
2023-04-22T12:29:10.671Z,23.14
2023-04-22T12:31:38.738Z,22.63
2023-04-22T12:34:06.656Z,24.78
2023-04-22T12:36:36.950Z,25.75
2023-04-22T12:39:04.786Z,27.09
2023-04-22T12:41:34.212Z,27.96
2023-04-22T12:44:03.652Z,28.20
2023-04-22T12:46:30.978Z,29.29
2023-04-22T12:48:58.155Z,28.81
2023-04-22T12:51:25.640Z,29.43
2023-04-22T12:53:59.120Z,28.63
2023-04-22T12:56:27.747Z,26.17
2023-04-22T12:58:55.928Z,26.06
2023-04-22T13:01:26.186Z,26.16
2023-04-22T13:03:54.137Z,24.14
2023-04-22T13:06:24.344Z,28.60
2023-04-22T13:08:52.053Z,23.18
2023-04-22T13:11:19.402Z,22.51
2023-04-22T13:13:46.666Z,22.19
2023-04-22T13:16:13.840Z,20.66
2023-04-22T13:18:45.315Z,22.74
2023-04-22T13:21:14.590Z,27.24
2023-04-22T13:23:42.256Z,25.73
2023-04-22T13:26:12.866Z,24.42
2023-04-22T13:28:40.680Z,23.84
2023-04-22T13:31:07.860Z,22.84
2023-04-22T13:33:35.074Z,21.81
2023-04-22T13:36:02.230Z,21.26
2023-04-22T13:38:29.319Z,22.18
2023-04-22T13:40:56.820Z,22.77
2023-04-22T13:43:23.971Z,30.09
2023-04-22T13:45:51.378Z,28.97
2023-04-22T13:48:22.364Z,23.60
2023-04-22T13:50:58.749Z,21.92
2023-04-22T13:53:26.170Z,22.56
2023-04-22T13:55:53.421Z,21.28
2023-04-22T13:58:20.606Z,26.50
2023-04-22T14:00:47.822Z,25.75
2023-04-22T14:03:15.290Z,22.78
2023-04-22T14:05:42.798Z,23.66
2023-04-22T14:08:10.049Z,22.69
2023-04-22T14:10:37.123Z,22.41
2023-04-22T14:13:04.365Z,20.95
2023-04-22T14:15:31.472Z,20.99
2023-04-22T14:17:58.782Z,26.91
2023-04-22T14:20:28.187Z,28.00
2023-04-22T14:22:55.976Z,27.04
2023-04-22T14:25:23.434Z,26.43
2023-04-22T14:27:50.650Z,32.05
2023-04-22T14:30:19.242Z,26.52
2023-04-22T14:32:46.535Z,24.72
2023-04-22T14:35:14.054Z,21.58
2023-04-22T14:37:43.476Z,22.11
2023-04-22T14:40:12.529Z,22.14
2023-04-22T14:42:42.547Z,25.23
2023-04-22T14:45:11.780Z,27.00
2023-04-22T14:47:39.561Z,25.12
2023-04-22T14:50:08.782Z,26.07
2023-04-22T14:52:36.554Z,25.94
2023-04-22T14:55:19.511Z,26.41
2023-04-22T14:57:55.237Z,28.71
2023-04-22T15:00:23.343Z,25.42
2023-04-22T15:02:50.909Z,24.52
2023-04-22T15:05:24.095Z,22.57
2023-04-22T15:07:51.905Z,23.16
2023-04-22T15:10:19.609Z,24.12
2023-04-22T15:12:46.859Z,25.24
2023-04-22T15:15:15.860Z,24.81
2023-04-22T15:17:44.686Z,24.90
2023-04-22T15:20:13.033Z,27.40
2023-04-22T15:22:44.290Z,26.92
2023-04-22T15:25:11.701Z,30.61
2023-04-22T15:27:39.768Z,30.98
2023-04-22T15:30:08.621Z,29.44
2023-04-22T15:32:36.409Z,27.05
2023-04-22T15:35:03.844Z,26.78
2023-04-22T15:37:31.354Z,30.60
2023-04-22T15:39:59.294Z,30.29
2023-04-22T15:42:29.528Z,25.97
2023-04-22T15:44:56.650Z,31.96
2023-04-22T15:47:24.471Z,30.32
2023-04-22T15:49:51.806Z,25.86
2023-04-22T15:52:19.448Z,23.05
2023-04-22T15:54:46.803Z,22.30
2023-04-22T15:57:14.127Z,24.51
2023-04-22T15:59:41.491Z,28.49
2023-04-22T16:02:10.005Z,25.60
2023-04-22T16:04:37.235Z,28.65
2023-04-22T16:07:05.872Z,31.85
2023-04-22T16:09:33.023Z,30.52
2023-04-22T16:12:00.175Z,29.56
2023-04-22T16:14:27.586Z,30.50
2023-04-22T16:16:54.783Z,31.63
2023-04-22T16:19:23.088Z,31.10
2023-04-22T16:21:56.431Z,32.07
2023-04-22T16:24:26.929Z,28.85
2023-04-22T16:26:56.660Z,30.38
2023-04-22T16:29:24.558Z,31.43
2023-04-22T16:31:52.720Z,31.57
2023-04-22T16:34:20.857Z,30.39
2023-04-22T16:36:47.996Z,31.07
2023-04-22T16:39:15.093Z,31.74
2023-04-22T16:41:43.260Z,31.43
2023-04-22T16:44:10.864Z,31.68
2023-04-22T16:46:38.332Z,32.73
2023-04-22T16:49:08.445Z,35.71
2023-04-22T16:51:37.724Z,35.32
2023-04-22T16:54:05.565Z,34.53
2023-04-22T16:56:32.658Z,37.94
2023-04-22T16:59:00.493Z,36.75
2023-04-22T17:01:30.111Z,37.05
2023-04-22T17:03:57.527Z,39.10
2023-04-22T17:06:24.950Z,38.82
2023-04-22T17:08:52.488Z,39.00
2023-04-22T17:11:19.698Z,38.96
2023-04-22T17:13:46.890Z,38.86
2023-04-22T17:16:14.040Z,41.00
2023-04-22T17:18:41.109Z,41.01
2023-04-22T17:21:08.474Z,41.44
2023-04-22T17:23:36.887Z,41.60
2023-04-22T17:26:03.980Z,41.08
2023-04-22T17:28:31.151Z,42.38
2023-04-22T17:30:58.393Z,40.96
2023-04-22T17:33:26.489Z,40.65
2023-04-22T17:35:53.674Z,41.27
2023-04-22T17:38:20.771Z,42.21
2023-04-22T17:40:48.165Z,42.14
2023-04-22T17:43:15.347Z,41.78
2023-04-22T17:45:42.425Z,42.47
2023-04-22T17:48:11.842Z,42.92
2023-04-22T17:50:38.996Z,41.17
2023-04-22T17:53:06.294Z,41.62
2023-04-22T17:55:36.532Z,42.01
2023-04-22T17:58:04.946Z,42.57
2023-04-22T18:00:37.445Z,43.53
2023-04-22T18:03:06.022Z,44.23
2023-04-22T18:05:33.266Z,44.49
2023-04-22T18:08:04.214Z,42.69
2023-04-22T18:10:31.518Z,44.46
2023-04-22T18:12:58.671Z,44.72
2023-04-22T18:15:25.963Z,44.30
2023-04-22T18:17:53.235Z,42.97
2023-04-22T18:20:20.550Z,42.73
2023-04-22T18:22:55.469Z,44.71
2023-04-22T18:25:22.925Z,44.33
2023-04-22T18:27:54.783Z,44.02
2023-04-22T18:30:25.291Z,45.03
2023-04-22T18:32:52.568Z,45.61
2023-04-22T18:35:20.145Z,46.78
2023-04-22T18:37:47.376Z,46.13
2023-04-22T18:40:17.499Z,46.46
2023-04-22T18:42:44.987Z,45.36
2023-04-22T18:45:12.707Z,44.21
2023-04-22T18:47:39.911Z,44.66
2023-04-22T18:50:07.861Z,44.70
2023-04-22T18:52:35.106Z,45.68
2023-04-22T18:55:02.398Z,46.83
2023-04-22T18:57:29.752Z,46.83
2023-04-22T18:59:56.809Z,47.16
2023-04-22T19:02:24.023Z,47.00
2023-04-22T19:04:54.006Z,46.04
2023-04-22T19:07:21.221Z,45.89
2023-04-22T19:09:48.367Z,45.35
2023-04-22T19:12:18.911Z,44.49
2023-04-22T19:14:47.764Z,45.61
2023-04-22T19:17:15.013Z,47.56
2023-04-22T19:19:42.506Z,47.41
2023-04-22T19:22:10.335Z,46.75
2023-04-22T19:24:39.410Z,46.51
2023-04-22T19:27:12.090Z,46.29
2023-04-22T19:29:51.042Z,47.06
2023-04-22T19:32:18.835Z,47.46
2023-04-22T19:34:47.187Z,47.85
2023-04-22T19:37:17.147Z,48.33
2023-04-22T19:39:44.424Z,47.32
2023-04-22T19:42:11.512Z,47.92
2023-04-22T19:44:41.144Z,46.85
2023-04-22T19:47:08.512Z,46.38
2023-04-22T19:49:36.101Z,45.74
2023-04-22T19:52:03.502Z,47.11
2023-04-22T19:54:30.701Z,47.77
2023-04-22T19:56:58.474Z,47.91
2023-04-22T19:59:27.945Z,48.43
2023-04-22T20:01:55.457Z,47.68
2023-04-22T20:04:23.231Z,46.59
2023-04-22T20:06:53.213Z,45.92
2023-04-22T20:09:20.954Z,46.11
2023-04-22T20:11:48.645Z,47.36
2023-04-22T20:14:18.502Z,45.40
2023-04-22T20:16:47.736Z,43.96
2023-04-22T20:19:15.644Z,43.93
2023-04-22T20:21:44.155Z,44.09
2023-04-22T20:24:19.950Z,45.50
2023-04-22T20:26:47.948Z,46.89
2023-04-22T20:29:24.509Z,48.09
2023-04-22T20:31:51.825Z,46.54
2023-04-22T20:34:20.684Z,47.90
2023-04-22T20:36:50.685Z,48.30
2023-04-22T20:39:17.926Z,46.62
2023-04-22T20:41:46.332Z,45.98
2023-04-22T20:44:14.109Z,47.63
2023-04-22T20:46:43.560Z,46.20
2023-04-22T20:49:10.677Z,46.38
2023-04-22T20:51:41.431Z,48.16
2023-04-22T20:54:21.667Z,49.37
2023-04-22T20:56:55.276Z,50.65
2023-04-22T20:59:22.365Z,51.95
2023-04-22T21:01:55.639Z,49.88
2023-04-22T21:04:27.449Z,49.33
2023-04-22T21:07:00.917Z,48.61
2023-04-22T21:09:28.490Z,49.60
2023-04-22T21:11:56.107Z,49.48
2023-04-22T21:14:26.212Z,49.29
2023-04-22T21:17:14.913Z,49.21
2023-04-22T21:19:53.157Z,48.07
2023-04-22T21:22:22.107Z,46.87
2023-04-22T21:24:51.629Z,48.70
2023-04-22T21:27:21.687Z,49.35
2023-04-22T21:29:50.000Z,49.51
2023-04-22T21:32:20.199Z,48.19
2023-04-22T21:34:47.461Z,48.82
2023-04-22T21:37:15.694Z,49.70
2023-04-22T21:39:42.774Z,48.85
2023-04-22T21:42:09.874Z,48.60
2023-04-22T21:44:38.214Z,47.53
2023-04-22T21:47:06.428Z,46.75
2023-04-22T21:49:33.546Z,45.28
2023-04-22T21:52:01.041Z,45.10
2023-04-22T21:54:28.214Z,45.14
2023-04-22T21:56:56.172Z,46.08
2023-04-22T21:59:24.701Z,46.37
2023-04-22T22:01:52.429Z,46.85
2023-04-22T22:04:19.642Z,46.90
2023-04-22T22:06:46.853Z,46.12
2023-04-22T22:09:14.354Z,45.22
2023-04-22T22:11:41.485Z,45.50
2023-04-22T22:14:08.640Z,46.26
2023-04-22T22:16:36.010Z,45.77
2023-04-22T22:19:04.417Z,46.63
2023-04-22T22:21:33.182Z,46.46
2023-04-22T22:24:00.486Z,46.32
2023-04-22T22:26:29.232Z,46.56
2023-04-22T22:28:56.533Z,46.54
2023-04-22T22:31:23.797Z,45.86
2023-04-22T22:33:50.870Z,45.13
2023-04-22T22:36:19.017Z,44.65
2023-04-22T22:38:46.352Z,46.10
2023-04-22T22:41:14.016Z,47.12
2023-04-22T22:43:41.032Z,49.75
2023-04-22T22:46:08.235Z,50.66
2023-04-22T22:48:35.840Z,51.10
2023-04-22T22:51:03.385Z,51.78
2023-04-22T22:53:30.559Z,51.61
2023-04-22T22:55:57.621Z,52.20
2023-04-22T22:58:24.786Z,52.70
2023-04-22T23:00:51.858Z,52.92
2023-04-22T23:03:20.121Z,53.11
2023-04-22T23:05:47.436Z,53.73
2023-04-22T23:08:14.751Z,52.73
2023-04-22T23:10:41.851Z,54.12
2023-04-22T23:13:08.889Z,53.36
2023-04-22T23:15:36.421Z,53.16
2023-04-22T23:18:03.846Z,52.62
2023-04-22T23:20:31.389Z,52.95
2023-04-22T23:22:59.825Z,53.44
2023-04-22T23:25:27.719Z,52.81
2023-04-22T23:27:55.251Z,53.88
2023-04-22T23:30:23.338Z,53.06
2023-04-22T23:32:52.223Z,53.29
2023-04-22T23:35:20.281Z,54.63
2023-04-22T23:37:50.695Z,53.34
2023-04-22T23:40:18.017Z,53.02
2023-04-22T23:42:45.091Z,54.79
2023-04-22T23:45:12.449Z,54.66
2023-04-22T23:47:39.905Z,54.62
2023-04-22T23:50:08.372Z,54.87
2023-04-22T23:52:41.216Z,54.88
2023-04-22T23:55:11.429Z,55.65
2023-04-22T23:57:39.440Z,54.64
